createdAt,value
2022-10-30T00:00:23.929Z,7.32
2022-10-30T00:02:50.545Z,7.97
2022-10-30T00:05:17.419Z,8.07
2022-10-30T00:07:43.886Z,6.78
2022-10-30T00:10:10.335Z,7.35
2022-10-30T00:12:36.877Z,7.78
2022-10-30T00:15:04.287Z,7.13
2022-10-30T00:17:30.768Z,7.13
2022-10-30T00:19:57.130Z,7.88
2022-10-30T00:22:23.599Z,7.50
2022-10-30T00:24:50.086Z,7.97
2022-10-30T00:27:16.976Z,6.82
2022-10-30T00:29:43.395Z,7.30
2022-10-30T00:32:10.159Z,6.78
2022-10-30T00:34:36.568Z,7.47
2022-10-30T00:37:02.990Z,7.50
2022-10-30T00:39:29.387Z,8.75
2022-10-30T00:41:55.825Z,7.20
2022-10-30T00:44:40.674Z,6.75
2022-10-30T00:47:32.195Z,7.00
2022-10-30T00:53:05.102Z,7.43
2022-10-30T00:55:42.244Z,7.18
2022-10-30T00:58:13.254Z,6.90
2022-10-30T01:00:42.069Z,6.97
2022-10-30T01:03:09.476Z,7.53
2022-10-30T01:05:36.368Z,6.80
2022-10-30T01:08:03.426Z,6.80
2022-10-30T01:10:30.034Z,7.20
2022-10-30T01:12:59.525Z,6.70
2022-10-30T01:15:33.160Z,6.60
2022-10-30T01:18:27.699Z,7.30
2022-10-30T01:21:11.868Z,6.57
2022-10-30T01:24:15.257Z,7.70
2022-10-30T01:29:58.360Z,6.45
2022-10-30T01:32:39.145Z,7.75
2022-10-30T01:35:15.619Z,6.82
2022-10-30T01:38:02.072Z,7.38
2022-10-30T01:40:28.914Z,7.22
2022-10-30T01:42:57.474Z,7.13
2022-10-30T01:45:44.598Z,7.47
2022-10-30T01:48:49.979Z,7.47
2022-10-30T01:51:40.668Z,7.50
2022-10-30T01:54:16.129Z,6.82
2022-10-30T01:57:04.791Z,7.78
2022-10-30T01:59:38.792Z,6.63
2022-10-30T02:02:07.456Z,8.13
2022-10-30T02:04:34.297Z,7.35
2022-10-30T02:07:00.871Z,7.25
2022-10-30T02:09:30.587Z,6.55
2022-10-30T02:11:58.030Z,6.97
2022-10-30T02:14:28.521Z,7.55
2022-10-30T02:16:58.482Z,7.40
2022-10-30T02:19:24.873Z,6.50
2022-10-30T02:21:51.674Z,6.00
2022-10-30T02:24:18.182Z,7.03
2022-10-30T02:26:44.739Z,7.28
2022-10-30T02:29:11.172Z,7.18
2022-10-30T02:31:37.981Z,6.90
2022-10-30T02:34:04.636Z,7.35
2022-10-30T02:36:31.997Z,6.88
2022-10-30T02:38:58.436Z,8.35
2022-10-30T02:41:25.118Z,6.78
2022-10-30T02:43:53.420Z,6.40
2022-10-30T02:46:20.354Z,6.95
2022-10-30T02:48:48.272Z,6.70
2022-10-30T02:51:14.690Z,6.80
2022-10-30T02:53:41.331Z,6.93
2022-10-30T02:56:12.683Z,6.85
2022-10-30T02:58:40.922Z,7.07
2022-10-30T03:01:10.996Z,7.50
2022-10-30T03:03:38.289Z,6.45
2022-10-30T03:06:06.743Z,7.20
2022-10-30T03:08:34.836Z,6.53
2022-10-30T03:11:03.770Z,6.28
2022-10-30T03:13:32.267Z,6.90
2022-10-30T03:16:03.689Z,6.20
2022-10-30T03:21:04.796Z,6.60
2022-10-30T03:23:31.248Z,8.15
2022-10-30T03:25:59.223Z,6.07
2022-10-30T03:28:28.730Z,6.85
2022-10-30T03:31:06.984Z,6.95
2022-10-30T03:33:34.309Z,7.05
2022-10-30T03:36:01.038Z,7.35
2022-10-30T03:38:27.796Z,6.90
2022-10-30T03:40:54.258Z,8.55
2022-10-30T03:43:20.911Z,7.32
2022-10-30T03:45:49.561Z,7.20
2022-10-30T03:48:17.823Z,7.55
2022-10-30T03:50:45.330Z,7.38
2022-10-30T03:53:13.035Z,8.15
2022-10-30T03:55:40.218Z,7.47
2022-10-30T03:58:07.719Z,7.53
2022-10-30T04:00:35.477Z,8.18
2022-10-30T04:03:06.887Z,6.75
2022-10-30T04:05:33.658Z,6.80
2022-10-30T04:08:05.647Z,6.85
2022-10-30T04:10:35.764Z,6.68
2022-10-30T04:13:07.612Z,7.05
2022-10-30T04:15:37.551Z,7.40
2022-10-30T04:18:04.766Z,7.60
2022-10-30T04:20:32.035Z,7.30
2022-10-30T04:23:01.166Z,7.55
2022-10-30T04:25:29.080Z,7.47
2022-10-30T04:27:57.828Z,6.82
2022-10-30T04:30:27.650Z,7.80
2022-10-30T04:32:56.741Z,8.15
2022-10-30T04:35:28.615Z,7.75
2022-10-30T04:37:56.865Z,7.40
2022-10-30T04:40:25.021Z,8.75
2022-10-30T04:42:57.072Z,8.15
2022-10-30T04:45:23.983Z,7.55
2022-10-30T04:47:50.898Z,8.73
2022-10-30T04:50:17.670Z,9.32
2022-10-30T04:52:44.445Z,7.88
2022-10-30T04:55:11.232Z,7.18
2022-10-30T04:57:38.324Z,8.68
2022-10-30T05:00:06.832Z,8.30
2022-10-30T05:02:37.463Z,8.73
2022-10-30T05:05:04.769Z,9.32
2022-10-30T05:07:31.361Z,7.68
2022-10-30T05:09:57.735Z,8.68
2022-10-30T05:12:25.081Z,7.90
2022-10-30T05:14:53.965Z,8.68
2022-10-30T05:17:21.541Z,7.53
2022-10-30T05:19:50.216Z,7.55
2022-10-30T05:22:16.589Z,7.22
2022-10-30T05:24:43.107Z,7.90
2022-10-30T05:27:09.544Z,7.60
2022-10-30T05:29:36.066Z,9.30
2022-10-30T05:32:02.848Z,9.18
2022-10-30T05:34:41.599Z,8.52
2022-10-30T05:37:08.898Z,8.50
2022-10-30T05:39:35.958Z,8.93
2022-10-30T05:42:05.856Z,8.10
2022-10-30T05:44:59.974Z,7.57
2022-10-30T05:47:28.222Z,8.38
2022-10-30T05:49:56.247Z,7.55
2022-10-30T05:52:25.003Z,8.55
2022-10-30T05:54:51.825Z,8.35
2022-10-30T05:57:35.751Z,8.13
2022-10-30T06:00:02.374Z,9.90
2022-10-30T06:02:30.808Z,10.98
2022-10-30T06:04:57.231Z,11.93
2022-10-30T06:07:24.260Z,11.10
2022-10-30T06:09:50.804Z,10.68
2022-10-30T06:12:35.841Z,8.48
2022-10-30T06:15:10.722Z,8.35
2022-10-30T06:17:37.246Z,8.60
2022-10-30T06:20:24.813Z,8.10
2022-10-30T06:23:10.531Z,8.30
2022-10-30T06:25:44.717Z,8.48
2022-10-30T06:28:17.850Z,7.28
2022-10-30T06:30:44.285Z,8.38
2022-10-30T06:33:11.009Z,7.68
2022-10-30T06:35:41.580Z,7.80
2022-10-30T06:38:09.939Z,8.38
2022-10-30T06:40:36.363Z,8.02
2022-10-30T06:43:21.557Z,7.22
2022-10-30T06:46:00.698Z,8.40
2022-10-30T06:48:28.034Z,7.70
2022-10-30T06:50:56.721Z,7.75
2022-10-30T06:53:26.372Z,7.78
2022-10-30T06:56:00.232Z,8.18
2022-10-30T06:58:50.115Z,8.38
2022-10-30T07:01:40.712Z,8.30
2022-10-30T07:04:23.408Z,7.97
2022-10-30T07:06:49.997Z,7.88
2022-10-30T07:09:18.460Z,9.18
2022-10-30T07:11:45.827Z,7.75
2022-10-30T07:14:18.586Z,8.40
2022-10-30T07:16:57.102Z,8.25
2022-10-30T07:19:23.963Z,7.85
2022-10-30T07:21:52.856Z,8.23
2022-10-30T07:24:19.312Z,8.50
2022-10-30T07:26:55.490Z,9.27
2022-10-30T07:29:35.595Z,11.48
2022-10-30T07:32:16.969Z,11.77
2022-10-30T07:34:49.304Z,14.45
2022-10-30T07:37:34.500Z,14.52
2022-10-30T07:40:11.633Z,14.95
2022-10-30T07:42:44.852Z,12.20
2022-10-30T07:45:47.062Z,11.93
2022-10-30T07:48:49.090Z,11.00
2022-10-30T07:51:27.677Z,11.00
2022-10-30T07:53:55.052Z,11.88
2022-10-30T07:56:23.446Z,11.85
2022-10-30T07:58:52.700Z,10.43
2022-10-30T08:01:35.209Z,11.43
2022-10-30T08:04:15.407Z,10.00
2022-10-30T08:06:42.661Z,10.32
2022-10-30T08:09:09.907Z,11.05
2022-10-30T08:11:36.340Z,11.20
2022-10-30T08:14:04.142Z,10.35
2022-10-30T08:16:30.732Z,10.32
2022-10-30T08:18:57.629Z,10.10
2022-10-30T08:21:25.435Z,11.90
2022-10-30T08:23:58.521Z,11.73
2022-10-30T08:26:27.799Z,13.57
2022-10-30T08:28:54.229Z,13.70
2022-10-30T08:31:20.873Z,13.82
2022-10-30T08:34:13.229Z,13.10
2022-10-30T08:36:49.424Z,15.82
2022-10-30T08:39:17.002Z,13.70
2022-10-30T08:41:56.615Z,13.98
2022-10-30T08:44:23.118Z,15.45
2022-10-30T08:47:08.089Z,16.40
2022-10-30T08:49:35.273Z,15.60
2022-10-30T08:52:02.468Z,13.90
2022-10-30T08:54:28.888Z,15.38
2022-10-30T08:56:55.462Z,15.82
2022-10-30T08:59:23.444Z,14.88
2022-10-30T09:01:52.304Z,17.35
2022-10-30T09:04:18.973Z,16.35
2022-10-30T09:07:05.404Z,16.77
2022-10-30T09:09:52.604Z,15.98
2022-10-30T09:12:19.161Z,14.07
2022-10-30T09:14:46.546Z,15.52
2022-10-30T09:17:12.983Z,15.35
2022-10-30T09:19:43.382Z,15.50
2022-10-30T09:22:11.993Z,14.43
2022-10-30T09:24:40.700Z,15.55
2022-10-30T09:27:29.969Z,16.05
2022-10-30T09:29:58.847Z,15.25
2022-10-30T09:32:30.903Z,11.77
2022-10-30T09:35:11.935Z,69.70
2022-10-30T09:37:40.251Z,20.38
2022-10-30T09:40:33.888Z,24.33
2022-10-30T09:43:25.138Z,26.23
2022-10-30T09:46:22.791Z,22.33
2022-10-30T09:49:05.328Z,22.35
2022-10-30T09:52:07.523Z,18.88
2022-10-30T09:55:08.455Z,18.27
2022-10-30T09:57:45.954Z,13.05
2022-10-30T10:00:15.121Z,15.57
2022-10-30T10:03:05.361Z,15.13
2022-10-30T10:05:51.144Z,15.82
2022-10-30T10:08:43.891Z,14.23
2022-10-30T10:12:07.450Z,13.23
2022-10-30T10:14:42.400Z,13.90
2022-10-30T10:17:13.509Z,12.85
2022-10-30T10:19:59.838Z,14.02
2022-10-30T10:22:38.844Z,13.30
2022-10-30T10:25:11.704Z,13.95
2022-10-30T10:27:47.195Z,13.60
2022-10-30T10:30:16.719Z,13.45
2022-10-30T10:33:12.621Z,14.25
2022-10-30T10:36:30.103Z,12.82
2022-10-30T10:39:07.452Z,14.68
2022-10-30T10:41:56.745Z,12.43
2022-10-30T10:44:49.705Z,11.82
2022-10-30T10:47:22.091Z,12.35
2022-10-30T10:50:10.650Z,11.70
2022-10-30T10:53:04.210Z,12.35
2022-10-30T10:55:36.580Z,12.35
2022-10-30T10:58:25.598Z,10.75
2022-10-30T11:00:52.659Z,12.00
2022-10-30T11:03:34.500Z,12.02
2022-10-30T11:06:19.117Z,11.23
2022-10-30T11:08:45.606Z,11.18
2022-10-30T11:11:11.977Z,11.15
2022-10-30T11:13:41.518Z,10.65
2022-10-30T11:16:37.301Z,10.77
2022-10-30T11:19:08.180Z,11.82
2022-10-30T11:21:48.847Z,10.75
2022-10-30T11:24:45.651Z,10.82
2022-10-30T11:27:26.514Z,9.63
2022-10-30T11:30:02.073Z,11.23
2022-10-30T11:32:32.336Z,9.75
2022-10-30T11:35:03.543Z,9.63
2022-10-30T11:37:35.768Z,9.13
2022-10-30T11:40:08.152Z,10.73
2022-10-30T11:42:35.928Z,11.13
2022-10-30T11:45:04.323Z,9.70
2022-10-30T11:47:38.401Z,10.05
2022-10-30T11:50:07.886Z,11.68
2022-10-30T11:52:41.837Z,9.80
2022-10-30T11:55:16.346Z,11.00
2022-10-30T11:57:50.068Z,10.95
2022-10-30T12:00:24.020Z,11.50
2022-10-30T12:02:52.637Z,9.68
2022-10-30T12:05:43.592Z,10.52
2022-10-30T12:08:15.151Z,11.40
2022-10-30T12:11:00.302Z,10.57
2022-10-30T12:13:32.681Z,10.13
2022-10-30T12:16:16.216Z,9.73
2022-10-30T12:18:52.084Z,10.50
2022-10-30T12:21:20.346Z,10.65
2022-10-30T12:23:56.545Z,9.63
2022-10-30T12:26:24.491Z,9.88
2022-10-30T12:28:59.155Z,8.90
2022-10-30T12:31:38.888Z,9.57
2022-10-30T12:34:15.473Z,10.57
2022-10-30T12:36:48.424Z,10.23
2022-10-30T12:39:23.891Z,10.15
2022-10-30T12:41:59.763Z,10.65
2022-10-30T12:44:36.435Z,9.95
2022-10-30T12:47:15.103Z,9.88
2022-10-30T12:49:47.764Z,9.77
2022-10-30T12:52:20.151Z,11.57
2022-10-30T12:54:55.193Z,11.32
2022-10-30T12:57:27.932Z,10.07
2022-10-30T13:00:07.126Z,9.25
2022-10-30T13:03:10.819Z,10.13
2022-10-30T13:05:43.719Z,9.55
2022-10-30T13:08:31.996Z,10.52
2022-10-30T13:11:03.562Z,9.38
2022-10-30T13:13:40.948Z,9.90
2022-10-30T13:16:15.218Z,9.93
2022-10-30T13:18:41.747Z,9.40
2022-10-30T13:21:21.210Z,9.93
2022-10-30T13:23:56.959Z,9.27
2022-10-30T13:26:37.442Z,9.48
2022-10-30T13:29:11.733Z,8.63
2022-10-30T13:31:57.990Z,9.38
2022-10-30T13:34:36.487Z,9.43
2022-10-30T13:37:12.756Z,9.88
2022-10-30T13:39:46.764Z,8.27
2022-10-30T13:42:34.044Z,8.18
2022-10-30T13:45:38.895Z,8.30
2022-10-30T13:48:18.699Z,8.30
2022-10-30T13:51:03.191Z,7.05
2022-10-30T13:53:33.816Z,7.47
2022-10-30T13:56:00.226Z,6.82
2022-10-30T13:58:37.849Z,7.28
2022-10-30T14:01:15.052Z,7.43
2022-10-30T14:03:51.185Z,7.60
2022-10-30T14:06:36.369Z,7.18
2022-10-30T14:09:46.587Z,7.25
2022-10-30T14:12:51.403Z,6.45
2022-10-30T14:15:29.668Z,6.45
2022-10-30T14:18:11.319Z,6.60
2022-10-30T14:20:48.176Z,7.68
2022-10-30T14:23:23.286Z,7.10
2022-10-30T14:26:01.994Z,6.75
2022-10-30T14:28:34.090Z,6.22
2022-10-30T14:31:07.307Z,6.23
2022-10-30T14:33:43.525Z,6.88
2022-10-30T14:36:19.357Z,9.82
2022-10-30T14:38:52.941Z,9.98
2022-10-30T14:41:32.871Z,9.65
2022-10-30T14:44:29.924Z,7.72
2022-10-30T14:47:24.301Z,8.05
2022-10-30T14:50:00.832Z,6.97
2022-10-30T14:52:54.922Z,7.30
2022-10-30T14:55:24.289Z,7.07
2022-10-30T14:58:08.272Z,7.60
2022-10-30T15:00:42.536Z,7.40
2022-10-30T15:03:48.186Z,8.10
2022-10-30T15:06:26.749Z,6.32
2022-10-30T15:09:14.815Z,7.72
2022-10-30T15:11:56.302Z,6.25
2022-10-30T15:14:40.560Z,5.43
2022-10-30T15:17:33.073Z,6.68
2022-10-30T15:20:04.372Z,7.65
2022-10-30T15:22:33.840Z,6.78
2022-10-30T15:25:02.917Z,7.55
2022-10-30T15:27:32.996Z,8.38
2022-10-30T15:30:02.319Z,10.07
2022-10-30T15:32:28.690Z,10.60
2022-10-30T15:35:03.447Z,10.02
2022-10-30T15:37:30.038Z,10.82
2022-10-30T15:40:16.912Z,9.75
2022-10-30T15:42:43.985Z,9.65
2022-10-30T15:45:35.687Z,9.15
2022-10-30T15:48:21.681Z,7.80
2022-10-30T15:51:02.257Z,9.52
2022-10-30T15:53:44.334Z,7.72
2022-10-30T15:57:06.820Z,7.53
2022-10-30T15:59:31.371Z,6.95
2022-10-30T16:01:58.448Z,10.13
2022-10-30T16:04:36.323Z,10.27
2022-10-30T16:07:17.969Z,8.63
2022-10-30T16:09:54.686Z,8.13
2022-10-30T16:12:25.617Z,7.85
2022-10-30T16:14:52.578Z,8.68
2022-10-30T16:17:19.438Z,6.90
2022-10-30T16:19:48.388Z,8.82
2022-10-30T16:22:21.251Z,8.20
2022-10-30T16:24:47.988Z,7.78
2022-10-30T16:27:18.241Z,8.13
2022-10-30T16:29:50.772Z,9.85
2022-10-30T16:32:23.821Z,11.05
2022-10-30T16:34:55.246Z,11.43
2022-10-30T16:37:27.568Z,12.25
2022-10-30T16:39:56.105Z,8.48
2022-10-30T16:42:25.125Z,10.32
2022-10-30T16:45:25.573Z,12.68
2022-10-30T16:47:58.219Z,10.45
2022-10-30T16:50:33.148Z,9.10
2022-10-30T16:53:21.227Z,8.20
2022-10-30T16:55:48.296Z,8.43
2022-10-30T16:58:16.351Z,7.82
2022-10-30T17:00:51.625Z,8.73
2022-10-30T17:03:24.853Z,8.60
2022-10-30T17:06:03.557Z,9.13
2022-10-30T17:08:35.765Z,9.60
2022-10-30T17:11:05.347Z,11.95
2022-10-30T17:13:42.633Z,11.77
2022-10-30T17:16:29.890Z,11.65
2022-10-30T17:18:58.653Z,11.05
2022-10-30T17:21:37.493Z,10.98
2022-10-30T17:24:04.189Z,11.52
2022-10-30T17:26:36.719Z,10.73
2022-10-30T17:29:03.176Z,15.00
2022-10-30T17:31:38.709Z,15.32
2022-10-30T17:34:12.248Z,34.33
2022-10-30T17:36:39.459Z,28.05
2022-10-30T17:39:06.337Z,22.25
2022-10-30T17:41:32.832Z,18.42
2022-10-30T17:44:00.141Z,19.33
2022-10-30T17:46:27.199Z,15.80
2022-10-30T17:48:53.818Z,14.27
2022-10-30T17:51:20.393Z,13.60
2022-10-30T17:53:48.369Z,11.07
2022-10-30T17:56:22.878Z,11.20
2022-10-30T17:58:49.303Z,8.60
2022-10-30T18:01:24.809Z,9.35
2022-10-30T18:03:54.816Z,8.10
2022-10-30T18:06:26.776Z,9.07
2022-10-30T18:08:53.694Z,8.90
2022-10-30T18:11:22.651Z,8.95
2022-10-30T18:13:50.775Z,9.80
2022-10-30T18:16:19.037Z,12.05
2022-10-30T18:18:46.452Z,13.95
2022-10-30T18:21:18.477Z,15.40
2022-10-30T18:23:53.683Z,14.35
2022-10-30T18:26:23.365Z,13.70
2022-10-30T18:28:50.462Z,13.50
2022-10-30T18:31:19.127Z,11.65
2022-10-30T18:33:45.872Z,12.73
2022-10-30T18:36:20.818Z,11.85
2022-10-30T18:38:48.033Z,14.02
2022-10-30T18:41:16.723Z,14.60
2022-10-30T18:43:46.623Z,13.35
2022-10-30T18:46:15.309Z,13.60
2022-10-30T18:48:41.816Z,14.40
2022-10-30T18:51:17.385Z,14.85
2022-10-30T18:53:51.206Z,20.60
2022-10-30T18:56:23.260Z,15.25
2022-10-30T18:58:54.780Z,13.25
2022-10-30T19:01:26.049Z,10.77
2022-10-30T19:03:52.804Z,11.52
2022-10-30T19:06:22.256Z,11.90
2022-10-30T19:08:49.146Z,11.02
2022-10-30T19:11:22.184Z,13.07
2022-10-30T19:13:51.512Z,13.23
2022-10-30T19:16:19.478Z,13.90
2022-10-30T19:18:47.247Z,11.15
2022-10-30T19:21:22.071Z,12.18
2022-10-30T19:23:48.761Z,11.45
2022-10-30T19:26:15.964Z,11.60
2022-10-30T19:28:43.329Z,9.50
2022-10-30T19:31:13.974Z,9.43
2022-10-30T19:33:40.741Z,8.70
2022-10-30T19:36:24.936Z,7.70
2022-10-30T19:38:51.439Z,7.57
2022-10-30T19:41:17.945Z,7.18
2022-10-30T19:43:44.348Z,7.18
2022-10-30T19:46:12.015Z,6.95
2022-10-30T19:51:26.021Z,6.30
2022-10-30T19:53:53.477Z,6.90
2022-10-30T19:56:20.174Z,7.18
2022-10-30T19:58:46.771Z,7.82
2022-10-30T20:01:13.797Z,7.57
2022-10-30T20:03:40.506Z,7.70
2022-10-30T20:06:07.131Z,7.60
2022-10-30T20:08:33.532Z,7.43
2022-10-30T20:11:00.805Z,7.25
2022-10-30T20:13:28.852Z,7.82
2022-10-30T20:15:58.440Z,7.93
2022-10-30T20:18:30.056Z,8.48
2022-10-30T20:21:01.432Z,8.13
2022-10-30T20:23:28.884Z,8.98
2022-10-30T20:26:00.868Z,8.23
2022-10-30T20:28:31.141Z,9.88
2022-10-30T20:30:57.694Z,9.48
2022-10-30T20:33:27.912Z,9.93
2022-10-30T20:35:55.009Z,10.43
2022-10-30T20:38:35.377Z,9.27
2022-10-30T20:41:03.874Z,9.38
2022-10-30T20:43:35.575Z,8.13
2022-10-30T20:46:03.548Z,9.60
2022-10-30T20:48:30.323Z,10.77
2022-10-30T20:50:58.305Z,10.25
2022-10-30T20:53:24.712Z,11.02
2022-10-30T20:55:51.200Z,10.50
2022-10-30T20:58:17.770Z,9.32
2022-10-30T21:00:47.510Z,8.98
2022-10-30T21:03:14.380Z,9.88
2022-10-30T21:05:44.334Z,8.32
2022-10-30T21:08:13.418Z,8.35
2022-10-30T21:10:40.430Z,8.40
2022-10-30T21:13:09.467Z,7.93
2022-10-30T21:15:41.562Z,8.05
2022-10-30T21:18:09.742Z,8.43
2022-10-30T21:20:36.789Z,6.95
2022-10-30T21:23:04.163Z,6.97
2022-10-30T21:25:37.269Z,9.30
2022-10-30T21:28:04.115Z,7.38
2022-10-30T21:30:30.968Z,6.45
2022-10-30T21:33:01.580Z,7.65
2022-10-30T21:35:28.587Z,7.40
2022-10-30T21:37:55.047Z,6.78
2022-10-30T21:40:21.576Z,6.90
2022-10-30T21:42:48.545Z,7.75
2022-10-30T21:45:14.983Z,7.25
2022-10-30T21:47:41.334Z,6.57
2022-10-30T21:50:12.300Z,8.60
2022-10-30T21:52:40.300Z,6.80
2022-10-30T21:55:07.125Z,6.80
2022-10-30T21:57:33.560Z,7.25
2022-10-30T22:00:03.388Z,8.70
2022-10-30T22:02:33.797Z,8.23
2022-10-30T22:05:00.604Z,7.00
2022-10-30T22:07:27.194Z,7.28
2022-10-30T22:09:54.146Z,6.80
2022-10-30T22:12:20.729Z,10.27
2022-10-30T22:14:47.157Z,8.80
2022-10-30T22:17:13.537Z,8.18
2022-10-30T22:19:39.906Z,7.15
2022-10-30T22:22:06.807Z,7.38
2022-10-30T22:24:33.184Z,7.13
2022-10-30T22:26:59.750Z,7.93
2022-10-30T22:29:26.080Z,8.65
2022-10-30T22:31:52.556Z,9.32
2022-10-30T22:34:18.972Z,9.25
2022-10-30T22:36:46.726Z,8.02
2022-10-30T22:39:15.107Z,8.15
2022-10-30T22:41:41.937Z,7.68
2022-10-30T22:44:12.453Z,7.47
2022-10-30T22:46:39.483Z,7.07
2022-10-30T22:49:06.801Z,7.95
2022-10-30T22:51:34.963Z,6.53
2022-10-30T22:54:03.812Z,7.95
2022-10-30T22:56:36.590Z,9.20
2022-10-30T22:59:06.523Z,7.00
2022-10-30T23:01:35.724Z,7.25
2022-10-30T23:04:04.755Z,7.65
2022-10-30T23:06:33.462Z,7.18
2022-10-30T23:09:04.640Z,7.20
2022-10-30T23:11:31.201Z,7.35
2022-10-30T23:13:57.832Z,6.18
2022-10-30T23:16:26.018Z,6.35
2022-10-30T23:18:54.958Z,7.63
2022-10-30T23:21:24.075Z,6.20
2022-10-30T23:23:51.072Z,4.90
2022-10-30T23:26:20.745Z,5.75
2022-10-30T23:28:50.344Z,5.88
2022-10-30T23:31:19.541Z,6.95
2022-10-30T23:33:47.671Z,5.70
2022-10-30T23:36:14.481Z,5.25
2022-10-30T23:38:40.849Z,5.63
2022-10-30T23:41:07.276Z,6.15
2022-10-30T23:43:33.871Z,5.68
2022-10-30T23:46:00.253Z,6.00
2022-10-30T23:48:26.594Z,5.97
2022-10-30T23:50:53.176Z,6.40
2022-10-30T23:53:19.639Z,5.75
2022-10-30T23:55:53.132Z,6.68
2022-10-30T23:58:20.705Z,5.57
